Time;durP1;ratioP1;P1;durP2;ratioP2;P2;SDS_P1;SDS_P2;PMS_P1;PMS_P2;Temp;Humidity;BMP_temperature;BMP_pressure;BME280_temperature;BME280_humidity;BME280_pressure;Samples;Min_cycle;Max_cycle;Signal;HPM_P1;HPM_P2
2021/04/19 00:01:38;;;;;;;27.98;12.95;;;;;;;6.12;100.00;100967.91;1676631;85;21661;-90
2021/04/19 00:04:04;;;;;;;33.23;13.32;;;;;;;6.14;100.00;100969.30;1676893;84;21514;-90
2021/04/19 00:06:30;;;;;;;32.75;13.50;;;;;;;6.14;100.00;100973.30;1676901;84;20959;-90
2021/04/19 00:08:56;;;;;;;30.57;13.05;;;;;;;6.17;100.00;100970.71;1676961;85;21593;-90
2021/04/19 00:11:26;;;;;;;32.75;13.75;;;;;;;6.16;100.00;100971.77;1676874;84;20916;-90
2021/04/19 00:13:50;;;;;;;31.10;13.75;;;;;;;6.21;100.00;100966.58;1676268;85;21154;-90
2021/04/19 00:16:16;;;;;;;31.12;13.00;;;;;;;6.26;100.00;100964.55;1676847;84;21097;-91
2021/04/19 00:18:42;;;;;;;39.35;13.83;;;;;;;6.26;100.00;100965.37;1677006;85;20936;-90
2021/04/19 00:21:08;;;;;;;28.80;12.93;;;;;;;6.24;100.00;100962.11;1676971;84;21261;-90
2021/04/19 00:23:34;;;;;;;29.57;13.35;;;;;;;6.25;100.00;100962.93;1676929;84;21089;-90
2021/04/19 00:26:00;;;;;;;31.62;12.05;;;;;;;6.24;100.00;100967.99;1657490;85;21221;-90
2021/04/19 00:28:26;;;;;;;29.23;12.90;;;;;;;6.21;100.00;100962.56;1676961;85;21169;-90
2021/04/19 00:30:52;;;;;;;31.65;13.60;;;;;;;6.23;100.00;100963.13;1676805;84;21593;-90
2021/04/19 00:33:19;;;;;;;32.25;13.72;;;;;;;6.26;100.00;100964.55;1676969;84;21543;-90
2021/04/19 00:35:44;;;;;;;29.65;12.37;;;;;;;6.26;100.00;100951.98;1676880;84;21058;-90
2021/04/19 00:38:10;;;;;;;29.75;11.80;;;;;;;6.24;100.00;100954.61;1676952;85;21023;-90
2021/04/19 00:40:39;;;;;;;28.02;12.55;;;;;;;6.16;100.00;100953.03;1676889;85;20972;-90
2021/04/19 00:43:06;;;;;;;28.32;11.97;;;;;;;6.12;100.00;100955.34;1657614;85;21130;-90
2021/04/19 00:45:32;;;;;;;27.87;11.33;;;;;;;6.05;100.00;100951.08;1676826;84;21177;-90
2021/04/19 00:47:58;;;;;;;27.62;11.18;;;;;;;5.89;100.00;100951.92;1676766;84;21142;-90
2021/04/19 00:50:30;;;;;;;27.90;11.12;;;;;;;5.84;100.00;100946.93;1676955;84;20967;-91
2021/04/19 00:52:57;;;;;;;28.47;11.93;;;;;;;5.76;100.00;100948.53;1676751;85;21086;-90
2021/04/19 00:55:23;;;;;;;31.25;11.88;;;;;;;5.73;100.00;100942.29;1659324;84;21100;-90
2021/04/19 00:57:51;;;;;;;33.90;12.25;;;;;;;5.62;100.00;100950.52;1655048;86;21557;-90
2021/04/19 01:00:22;;;;;;;28.40;11.73;;;;;;;5.60;100.00;100948.58;1639341;87;21179;-90
2021/04/19 01:02:48;;;;;;;28.60;11.48;;;;;;;5.52;100.00;100945.64;1636866;87;21275;-90
2021/04/19 01:05:20;;;;;;;30.20;12.40;;;;;;;5.50;100.00;100946.89;1639513;87;21052;-90
2021/04/19 01:07:45;;;;;;;30.62;12.35;;;;;;;5.41;100.00;100944.52;1639171;87;21656;-90
2021/04/19 01:10:12;;;;;;;26.12;11.18;;;;;;;5.41;100.00;100937.83;1639398;87;21246;-90
2021/04/19 01:12:38;;;;;;;26.07;11.70;;;;;;;5.26;100.00;100934.63;1639161;87;21278;-90
2021/04/19 01:15:05;;;;;;;24.23;11.60;;;;;;;5.24;100.00;100928.70;1639312;87;21052;-90
2021/04/19 01:17:31;;;;;;;28.17;11.60;;;;;;;5.29;100.00;100934.72;1639337;87;21214;-90
2021/04/19 01:19:57;;;;;;;30.90;11.70;;;;;;;5.30;100.00;100933.17;1639523;87;21080;-90
2021/04/19 01:22:23;;;;;;;27.30;12.10;;;;;;;5.32;100.00;100931.61;1639389;87;21249;-90
2021/04/19 01:24:49;;;;;;;26.35;11.43;;;;;;;5.30;100.00;100926.50;1639248;87;20941;-90
2021/04/19 01:27:15;;;;;;;28.98;10.03;;;;;;;5.22;100.00;100926.75;1639330;87;21708;-90
2021/04/19 01:29:41;;;;;;;23.10;10.60;;;;;;;5.19;100.00;100926.66;1639384;87;20985;-90
2021/04/19 01:32:08;;;;;;;25.70;11.10;;;;;;;5.09;100.00;100920.99;1639511;87;20969;-90
2021/04/19 01:34:34;;;;;;;22.73;10.13;;;;;;;4.99;100.00;100925.45;1639407;87;21846;-90
2021/04/19 01:37:01;;;;;;;27.60;10.90;;;;;;;4.94;100.00;100924.45;1639294;87;20973;-90
2021/04/19 01:39:27;;;;;;;32.45;12.10;;;;;;;4.89;100.00;100921.63;1639306;87;21139;-90
2021/04/19 01:41:53;;;;;;;31.85;11.97;;;;;;;4.79;100.00;100919.39;1639328;87;21239;-90
2021/04/19 01:44:18;;;;;;;27.00;11.48;;;;;;;4.71;100.00;100927.67;1639381;87;21040;-90
2021/04/19 01:46:47;;;;;;;34.67;12.85;;;;;;;4.61;100.00;100923.29;1639319;87;21269;-89
2021/04/19 01:49:21;;;;;;;29.50;11.73;;;;;;;4.59;100.00;100914.17;1639358;87;21698;-89
2021/04/19 01:51:47;;;;;;;32.45;12.03;;;;;;;4.53;100.00;100916.36;1639431;87;21270;-90
2021/04/19 01:54:13;;;;;;;30.77;11.55;;;;;;;4.49;100.00;100914.61;1643605;86;21170;-89
2021/04/19 01:56:40;;;;;;;28.00;11.88;;;;;;;4.42;100.00;100916.50;1663655;85;21066;-89
2021/04/19 01:59:08;;;;;;;27.48;11.95;;;;;;;4.42;100.00;100919.16;1676782;84;21911;-90
2021/04/19 02:01:37;;;;;;;25.68;11.73;;;;;;;4.44;100.00;100917.60;1676771;85;21125;-89
2021/04/19 02:04:47;;;;;;;30.80;12.73;;;;;;;4.38;100.00;100919.27;1673754;85;21169;-89
2021/04/19 02:07:33;;;;;;;31.75;12.65;;;;;;;4.38;100.00;100919.27;1676770;85;21164;-89
2021/04/19 02:10:07;;;;;;;29.35;11.95;;;;;;;4.35;100.00;100919.69;1672007;85;21158;-89
2021/04/19 02:12:42;;;;;;;29.67;11.50;;;;;;;4.37;100.00;100925.64;1671189;85;21186;-89
2021/04/19 02:15:19;;;;;;;23.70;11.10;;;;;;;4.39;100.00;100924.92;1674965;85;21209;-89
2021/04/19 02:18:24;;;;;;;27.48;11.97;;;;;;;4.37;100.00;100926.16;1589644;90;21442;-89
2021/04/19 02:21:02;;;;;;;25.35;11.53;;;;;;;4.36;100.00;100922.67;1594067;89;21218;-89
2021/04/19 02:23:38;;;;;;;31.90;12.05;;;;;;;4.30;100.00;100924.34;1593758;90;21233;-89
2021/04/19 02:26:12;;;;;;;25.95;11.83;;;;;;;4.25;100.00;100915.32;1593808;90;21660;-89
2021/04/19 02:28:49;;;;;;;28.67;12.60;;;;;;;4.25;100.00;100918.80;1593602;90;21021;-89
2021/04/19 02:31:18;;;;;;;31.77;12.25;;;;;;;4.30;100.00;100916.33;1593782;89;21615;-89
2021/04/19 02:33:45;;;;;;;28.47;12.07;;;;;;;4.31;100.00;100913.14;1593757;89;21616;-89
2021/04/19 02:36:13;;;;;;;28.55;11.43;;;;;;;4.34;100.00;100918.06;1593651;89;21087;-89
2021/04/19 02:38:44;;;;;;;25.43;11.93;;;;;;;4.36;100.00;100912.00;1593254;89;21591;-89
2021/04/19 02:41:13;;;;;;;25.27;11.35;;;;;;;4.38;100.00;100911.78;1593997;89;21207;-88
2021/04/19 02:43:41;;;;;;;23.60;10.82;;;;;;;4.38;100.00;100909.92;1593581;90;21175;-89
2021/04/19 02:46:09;;;;;;;26.37;11.35;;;;;;;4.42;100.00;100917.83;1592951;89;21171;-89
2021/04/19 02:48:37;;;;;;;30.68;12.98;;;;;;;4.44;100.00;100925.12;1593951;89;21163;-89
2021/04/19 02:51:07;;;;;;;25.70;11.55;;;;;;;4.49;100.00;100919.95;1593613;90;21258;-88
2021/04/19 02:53:35;;;;;;;28.92;12.30;;;;;;;4.55;100.00;100923.09;1593661;90;21231;-88
2021/04/19 02:56:07;;;;;;;25.65;11.10;;;;;;;4.58;100.00;100932.53;1644672;86;21260;-88
2021/04/19 02:58:47;;;;;;;26.55;11.50;;;;;;;4.62;100.00;100930.26;1655402;86;21565;-89
2021/04/19 03:01:26;;;;;;;28.15;11.33;;;;;;;4.67;100.00;100929.11;1655254;86;21123;-88
2021/04/19 03:03:56;;;;;;;25.52;11.38;;;;;;;4.72;100.00;100937.31;1655175;86;21199;-88
2021/04/19 03:06:24;;;;;;;28.42;11.85;;;;;;;4.69;100.00;100933.73;1655141;85;21187;-88
2021/04/19 03:08:54;;;;;;;30.95;12.53;;;;;;;4.78;100.00;100939.94;1655155;86;21191;-88
2021/04/19 03:11:28;;;;;;;27.32;11.68;;;;;;;4.83;100.00;100944.66;1655273;86;21201;-88
2021/04/19 03:13:56;;;;;;;39.60;13.18;;;;;;;4.89;100.00;100947.80;1653029;86;21188;-89
2021/04/19 03:16:25;;;;;;;34.92;13.00;;;;;;;4.93;100.00;100938.33;1636232;86;21245;-89
2021/04/19 03:18:53;;;;;;;43.38;14.93;;;;;;;5.01;100.00;100938.60;1655171;86;21109;-88
2021/04/19 03:21:25;;;;;;;38.13;13.05;;;;;;;5.12;100.00;100939.26;1655162;86;21147;-89
2021/04/19 03:23:58;;;;;;;35.23;14.07;;;;;;;5.21;100.00;100943.30;1655193;85;21191;-89
2021/04/19 03:26:28;;;;;;;41.13;15.13;;;;;;;5.30;100.00;100942.53;1655323;86;21423;-88
2021/04/19 03:28:55;;;;;;;37.83;14.78;;;;;;;5.37;100.00;100936.61;1655190;85;21581;-88
2021/04/19 03:31:26;;;;;;;36.15;14.35;;;;;;;5.43;100.00;100938.41;1655122;86;21609;-88
2021/04/19 03:33:56;;;;;;;34.43;14.28;;;;;;;5.49;100.00;100939.92;1655026;86;21135;-89
2021/04/19 03:36:25;;;;;;;39.78;15.13;;;;;;;5.56;100.00;100940.67;1655191;85;21183;-89
2021/04/19 03:38:52;;;;;;;37.38;13.20;;;;;;;5.65;100.00;100946.08;1655348;86;21136;-89
2021/04/19 03:41:20;;;;;;;36.60;13.90;;;;;;;5.79;100.00;100950.77;1655127;86;21156;-89
2021/04/19 03:43:53;;;;;;;32.95;14.55;;;;;;;5.89;100.00;100951.92;1655049;85;21120;-89
2021/04/19 03:46:21;;;;;;;33.65;13.90;;;;;;;6.07;100.00;100936.97;1626527;88;21160;-88
2021/04/19 03:49:02;;;;;;;37.10;15.58;;;;;;;6.11;100.00;100939.49;1626289;88;21702;-89
2021/04/19 03:51:28;;;;;;;32.48;14.00;;;;;;;6.31;100.00;100941.44;1567957;90;21209;-90
2021/04/19 03:53:57;;;;;;;34.03;14.03;;;;;;;6.37;100.00;100938.39;1571148;90;21249;-89
2021/04/19 03:56:25;;;;;;;34.23;14.13;;;;;;;6.50;100.00;100942.77;1570778;89;21226;-89
2021/04/19 03:58:52;;;;;;;33.00;14.23;;;;;;;6.50;100.00;100940.94;1550575;91;21192;-89
2021/04/19 04:01:20;;;;;;;29.90;13.43;;;;;;;6.56;100.00;100945.91;1558988;90;21218;-88
2021/04/19 04:03:48;;;;;;;31.50;13.85;;;;;;;6.84;100.00;100946.67;1570145;90;21225;-89
2021/04/19 04:06:16;;;;;;;31.20;13.28;;;;;;;7.11;100.00;100955.70;1570910;90;21214;-89
2021/04/19 04:08:43;;;;;;;32.78;13.50;;;;;;;7.20;100.00;100944.94;1571454;90;21205;-90
2021/04/19 04:11:11;;;;;;;28.38;13.58;;;;;;;7.34;100.00;100943.70;1550603;91;21225;-89
2021/04/19 04:13:37;;;;;;;31.68;12.88;;;;;;;7.57;100.00;100946.15;1570895;90;21201;-90
2021/04/19 04:16:03;;;;;;;33.35;13.45;;;;;;;7.49;100.00;100944.08;1571018;89;21169;-90
2021/04/19 04:18:29;;;;;;;34.15;14.40;;;;;;;7.46;100.00;100944.54;1570768;90;21259;-90
2021/04/19 04:20:56;;;;;;;31.68;13.85;;;;;;;7.51;100.00;100947.89;1571161;90;21126;-90
2021/04/19 04:23:22;;;;;;;34.23;15.03;;;;;;;7.59;100.00;100935.48;1570682;90;21170;-89
2021/04/19 04:25:50;;;;;;;35.03;14.10;;;;;;;7.63;100.00;100946.03;1550880;90;21579;-90
2021/04/19 04:28:16;;;;;;;35.00;14.75;;;;;;;7.90;100.00;100949.08;1590844;88;21191;-90
2021/04/19 04:30:42;;;;;;;42.27;15.13;;;;;;;7.83;100.00;100948.39;1626229;88;21887;-90
2021/04/19 04:33:09;;;;;;;35.35;14.75;;;;;;;7.90;100.00;100954.45;1626321;88;21279;-89
2021/04/19 04:35:37;;;;;;;34.43;14.47;;;;;;;7.95;100.00;100954.57;1604685;88;21207;-89
2021/04/19 04:38:03;;;;;;;32.17;14.03;;;;;;;8.17;100.00;100944.58;1626343;88;21216;-89
2021/04/19 04:40:31;;;;;;;31.68;14.45;;;;;;;8.22;100.00;100946.03;1626329;88;21232;-89
2021/04/19 04:43:08;;;;;;;35.15;15.20;;;;;;;8.55;100.00;100945.95;1604400;88;21259;-89
2021/04/19 04:45:35;;;;;;;33.90;14.50;;;;;;;9.01;100.00;100944.16;1554592;92;21198;-89
2021/04/19 04:48:10;;;;;;;31.05;14.40;;;;;;;9.39;100.00;100935.96;1554710;92;21660;-88
2021/04/19 04:50:47;;;;;;;29.92;12.75;;;;;;;9.98;100.00;100941.73;1577597;90;21146;-89
2021/04/19 04:53:22;;;;;;;32.00;13.35;;;;;;;10.51;100.00;100938.16;1579334;90;21186;-89
2021/04/19 04:55:49;;;;;;;23.02;11.75;;;;;;;10.98;100.00;100932.22;1554788;91;21720;-90
2021/04/19 04:58:16;;;;;;;27.45;13.00;;;;;;;10.83;100.00;100930.98;1555989;92;21263;-89
2021/04/19 05:00:44;;;;;;;26.77;12.63;;;;;;;11.12;100.00;100928.86;1555953;92;21223;-89
2021/04/19 05:03:12;;;;;;;24.85;12.23;;;;;;;11.62;100.00;100934.97;1556086;92;21704;-89
2021/04/19 05:05:40;;;;;;;27.48;11.95;;;;;;;11.57;100.00;100930.88;1555955;92;21131;-90
2021/04/19 05:08:15;;;;;;;24.37;12.18;;;;;;;11.68;100.00;100934.47;1555999;92;21261;-90
2021/04/19 05:10:41;;;;;;;24.18;11.88;;;;;;;11.71;100.00;100926.66;1555981;92;21178;-90
2021/04/19 05:13:17;;;;;;;23.70;12.55;;;;;;;11.80;100.00;100927.80;1555973;92;21287;-90
2021/04/19 05:15:48;;;;;;;25.17;12.75;;;;;;;11.42;100.00;100924.81;1556108;92;21127;-90
2021/04/19 05:18:19;;;;;;;27.82;13.55;;;;;;;11.55;100.00;100924.36;1555749;91;21191;-90
2021/04/19 05:20:46;;;;;;;31.77;13.28;;;;;;;11.16;100.00;100927.00;1555824;92;21889;-91
2021/04/19 05:23:15;;;;;;;24.52;12.55;;;;;;;10.99;100.00;100933.30;1557923;92;21576;-90
2021/04/19 05:25:43;;;;;;;29.18;13.95;;;;;;;11.66;100.00;100929.86;1559148;92;21195;-92
2021/04/19 05:28:10;;;;;;;27.62;13.30;;;;;;;11.44;100.00;100931.28;1556025;92;21234;-93
2021/04/19 05:30:36;;;;;;;24.85;12.15;;;;;;;11.47;100.00;100933.47;1559350;92;21186;-92
2021/04/19 05:33:04;;;;;;;25.23;13.05;;;;;;;11.53;100.00;100933.28;1559235;92;21274;-92
2021/04/19 05:35:33;;;;;;;30.15;14.28;;;;;;;10.77;100.00;100929.84;1580405;87;21250;-92
2021/04/19 05:37:59;;;;;;;25.97;13.38;;;;;;;11.30;100.00;100925.52;1634653;87;21135;-92
2021/04/19 05:40:29;;;;;;;29.07;14.68;;;;;;;11.81;100.00;100924.56;1630986;87;21087;-93
2021/04/19 05:42:57;;;;;;;30.48;14.68;;;;;;;11.87;100.00;100922.74;1658868;86;21195;-93
2021/04/19 05:45:23;;;;;;;27.32;13.25;;;;;;;12.22;100.00;100918.89;1661835;86;21633;-93
2021/04/19 05:47:51;;;;;;;23.47;12.43;;;;;;;11.71;100.00;100920.45;1661955;86;21203;-94
2021/04/19 05:50:24;;;;;;;24.27;12.50;;;;;;;12.26;100.00;100908.36;1662578;86;21195;-93
2021/04/19 05:52:54;;;;;;;27.93;12.88;;;;;;;12.87;100.00;100910.48;1632306;86;21155;-94
2021/04/19 05:55:27;;;;;;;22.90;11.78;;;;;;;13.34;100.00;100906.23;1660846;85;21616;-93
2021/04/19 05:58:07;;;;;;;25.97;12.45;;;;;;;14.05;100.00;100912.66;1651623;85;21249;-92
2021/04/19 06:00:53;;;;;;;27.70;13.88;;;;;;;14.38;100.00;100910.38;1685309;85;21205;-93
2021/04/19 06:03:56;;;;;;;45.85;16.12;;;;;;;14.24;100.00;100903.39;1684573;85;21614;-92
2021/04/19 06:06:44;;;;;;;27.87;12.80;;;;;;;14.12;100.00;100905.06;1686416;84;21216;-92
2021/04/19 06:09:30;;;;;;;25.60;12.70;;;;;;;13.69;100.00;100901.08;1686421;84;21541;-91
2021/04/19 06:12:05;;;;;;;30.90;13.10;;;;;;;14.30;100.00;100913.12;1686277;84;21434;-91
2021/04/19 06:14:46;;;;;;;27.85;12.35;;;;;;;14.25;100.00;100923.44;1685949;85;21582;-91
2021/04/19 06:17:15;;;;;;;22.80;11.55;;;;;;;14.42;100.00;100914.98;1684081;85;21146;-91
2021/04/19 06:19:45;;;;;;;23.30;12.07;;;;;;;14.04;100.00;100919.16;1686221;85;21553;-91
2021/04/19 06:22:20;;;;;;;22.82;11.78;;;;;;;14.70;100.00;100920.84;1686275;84;21113;-90
2021/04/19 06:24:49;;;;;;;19.05;11.28;;;;;;;16.07;100.00;100901.30;1582682;89;21188;-92
2021/04/19 06:27:24;;;;;;;24.07;11.45;;;;;;;17.66;100.00;100914.04;1581860;89;21272;-90
2021/04/19 06:29:51;;;;;;;26.37;12.28;;;;;;;18.70;87.57;100913.12;1581913;89;21267;-90
2021/04/19 06:32:22;;;;;;;26.48;12.25;;;;;;;18.82;75.87;100913.42;1581929;89;21200;-91
2021/04/19 06:34:47;;;;;;;24.12;11.80;;;;;;;18.88;65.03;100908.66;1581955;89;21281;-91
2021/04/19 06:37:13;;;;;;;25.27;11.93;;;;;;;18.57;63.38;100912.04;1581972;90;22020;-91
2021/04/19 06:39:39;;;;;;;19.07;11.55;;;;;;;19.05;70.35;100917.00;1581924;89;21224;-88
2021/04/19 06:42:06;;;;;;;22.82;12.43;;;;;;;19.48;60.79;100917.33;1578501;90;21255;-87
2021/04/19 06:44:33;;;;;;;24.65;11.78;;;;;;;19.40;61.83;100912.60;1582004;90;21313;-88
2021/04/19 06:47:00;;;;;;;25.10;12.45;;;;;;;18.61;60.79;100917.12;1581930;89;21113;-87
2021/04/19 06:49:26;;;;;;;25.62;13.40;;;;;;;18.48;62.71;100915.23;1581973;89;21931;-87
2021/04/19 06:51:55;;;;;;;21.75;11.90;;;;;;;18.46;62.49;100916.09;1581806;90;21180;-89
2021/04/19 06:54:26;;;;;;;27.77;12.20;;;;;;;18.27;66.12;100914.85;1508183;93;21354;-88
2021/04/19 06:56:53;;;;;;;23.20;13.20;;;;;;;17.97;63.56;100915.70;1508258;93;21161;-88
2021/04/19 06:59:23;;;;;;;31.52;12.85;;;;;;;18.32;60.67;100914.73;1508364;93;21198;-87
2021/04/19 07:01:53;;;;;;;25.43;11.45;;;;;;;17.43;65.11;100911.70;1508324;93;21250;-88
2021/04/19 07:04:27;;;;;;;24.77;11.73;;;;;;;16.54;69.69;100911.08;1508353;93;21208;-88
2021/04/19 07:06:55;;;;;;;25.30;12.50;;;;;;;16.78;71.90;100915.94;1508198;93;21228;-87
2021/04/19 07:09:28;;;;;;;27.65;11.93;;;;;;;17.34;69.44;100915.66;1508345;94;21658;-88
2021/04/19 07:11:59;;;;;;;;;;;;;;;17.14;65.98;100920.06;1510513;94;21177;-87
2021/04/19 07:14:30;;;;;;;27.07;11.95;;;;;;;17.48;66.33;100915.15;1508439;94;22010;-88
2021/04/19 07:16:56;;;;;;;29.30;12.25;;;;;;;17.56;66.57;100918.28;1508211;94;21290;-88
2021/04/19 07:19:23;;;;;;;25.30;11.78;;;;;;;17.52;65.58;100918.64;1508387;93;21903;-88
2021/04/19 07:21:50;;;;;;;24.75;12.88;;;;;;;17.24;66.13;100919.92;1479288;93;21162;-88
2021/04/19 07:24:17;;;;;;;30.57;13.60;;;;;;;17.40;68.96;100920.47;1544494;92;21206;-88
2021/04/19 07:26:45;;;;;;;29.57;12.95;;;;;;;17.10;69.32;100923.93;1544509;92;21214;-88
2021/04/19 07:29:11;;;;;;;28.02;13.70;;;;;;;17.29;72.61;100915.73;1544447;92;21312;-88
2021/04/19 07:31:48;;;;;;;32.63;14.40;;;;;;;16.03;79.71;100924.73;1544359;92;21209;-88
2021/04/19 07:34:21;;;;;;;31.68;13.83;;;;;;;16.04;81.82;100922.27;1434164;100;21249;-87
2021/04/19 07:36:57;;;;;;;26.48;13.65;;;;;;;16.43;84.61;100923.19;1387489;103;21658;-86
2021/04/19 07:39:25;;;;;;;30.80;15.32;;;;;;;17.24;77.48;100916.63;1358845;105;21354;-86
2021/04/19 07:41:55;;;;;;;38.98;16.40;;;;;;;17.98;72.65;100920.03;1358746;105;21276;-87
2021/04/19 07:44:53;;;;;;;32.48;15.75;;;;;;;17.03;70.22;100924.31;1350109;106;21316;-87
2021/04/19 07:47:37;;;;;;;35.78;16.65;;;;;;;17.48;70.67;100917.08;1350233;106;21758;-86
2021/04/19 07:50:20;;;;;;;36.23;16.50;;;;;;;16.63;67.78;100922.13;1350334;104;21269;-85
2021/04/19 07:53:08;;;;;;;29.70;16.30;;;;;;;17.63;68.73;100918.73;1398880;102;21879;-86
2021/04/19 07:55:38;;;;;;;25.95;14.78;;;;;;;19.06;67.70;100910.44;1398705;102;21260;-86
2021/04/19 07:58:22;;;;;;;29.80;15.18;;;;;;;18.16;57.90;100913.67;1398686;102;21271;-85
2021/04/19 08:01:20;;;;;;;27.35;15.10;;;;;;;18.51;60.98;100915.43;1398219;102;21382;-91
2021/04/19 08:03:40;;;;;;;26.35;14.63;;;;;;;21.68;54.16;100897.19;1395041;102;21257;-90
2021/04/19 08:06:24;;;;;;;30.57;15.78;;;;;;;22.09;46.46;100894.91;1398649;102;21717;-90
2021/04/19 08:08:50;;;;;;;29.10;15.98;;;;;;;20.78;48.98;100899.83;1398658;102;21318;-89
2021/04/19 08:11:18;;;;;;;34.30;18.15;;;;;;;20.63;50.81;100899.73;1398725;101;21048;-89
2021/04/19 08:13:45;;;;;;;29.32;16.67;;;;;;;22.44;47.89;100894.19;1398820;102;21329;-91
2021/04/19 08:16:24;;;;;;;27.20;15.85;;;;;;;21.32;46.82;100898.91;1398778;102;21289;-90
2021/04/19 08:18:50;;;;;;;27.90;16.23;;;;;;;18.44;51.79;100908.75;1398968;102;21330;-91
2021/04/19 08:21:31;;;;;;;26.93;15.13;;;;;;;19.59;52.30;100900.65;1398738;102;21789;-90
2021/04/19 08:24:15;;;;;;;30.27;16.37;;;;;;;18.90;53.32;100903.14;1398802;102;21337;-92
2021/04/19 08:26:57;;;;;;;26.77;15.75;;;;;;;19.39;52.03;100897.89;1398910;102;21697;-91
2021/04/19 08:29:42;;;;;;;27.48;14.43;;;;;;;18.94;55.28;100902.79;1398850;102;21194;-90
2021/04/19 08:32:11;;;;;;;28.67;16.05;;;;;;;18.97;53.39;100902.70;1477024;96;21308;-90
2021/04/19 08:34:38;;;;;;;24.67;14.25;;;;;;;17.90;61.64;100903.80;1517413;94;21244;-90
2021/04/19 08:37:08;;;;;;;23.00;14.78;;;;;;;19.26;58.87;100894.89;1564639;90;21228;-90
2021/04/19 08:39:35;;;;;;;26.10;14.70;;;;;;;20.72;55.58;100895.07;1575316;90;21175;-90
2021/04/19 08:42:02;;;;;;;26.37;14.60;;;;;;;19.52;53.85;100894.27;1611383;88;21156;-91
2021/04/19 08:44:34;;;;;;;22.13;14.30;;;;;;;21.46;55.39;100894.66;1621911;88;21226;-92
2021/04/19 08:47:03;;;;;;;25.82;12.93;;;;;;;22.48;48.90;100888.28;1621859;88;21191;-90
2021/04/19 08:49:31;;;;;;;24.67;14.55;;;;;;;22.54;45.58;100898.51;1621684;88;21596;-90
2021/04/19 08:51:57;;;;;;;26.10;14.15;;;;;;;21.87;45.66;100887.76;1604081;88;21517;-90
2021/04/19 08:54:23;;;;;;;21.80;13.30;;;;;;;23.93;45.36;100882.91;1621850;88;21147;-89
2021/04/19 08:56:50;;;;;;;25.57;13.78;;;;;;;25.95;41.60;100881.48;1638112;85;21801;-90
2021/04/19 08:59:18;;;;;;;29.25;13.93;;;;;;;26.48;39.16;100886.66;1654886;86;21240;-90
2021/04/19 09:01:46;;;;;;;24.47;13.80;;;;;;;25.40;37.99;100884.56;1655119;86;21124;-90
2021/04/19 09:04:12;;;;;;;23.15;13.65;;;;;;;26.06;37.30;100880.37;1654971;86;21188;-91
2021/04/19 09:06:46;;;;;;;24.23;13.08;;;;;;;25.79;38.16;100886.95;1655113;86;21167;-91
2021/04/19 09:09:17;;;;;;;27.30;14.35;;;;;;;23.34;40.13;100891.48;1654983;86;21228;-91
2021/04/19 09:11:43;;;;;;;22.42;14.10;;;;;;;25.91;38.37;100885.30;1579253;89;21685;-90
2021/04/19 09:14:12;;;;;;;24.23;14.18;;;;;;;24.29;38.16;100884.63;1579727;89;20969;-89
2021/04/19 09:16:41;;;;;;;22.67;12.47;;;;;;;23.65;39.58;100893.75;1579683;89;21283;-90
2021/04/19 09:19:07;;;;;;;20.60;12.90;;;;;;;25.25;38.24;100891.66;1579581;89;21228;-92
2021/04/19 09:21:48;;;;;;;19.23;12.43;;;;;;;23.99;38.12;100890.38;1579776;89;21251;-90
2021/04/19 09:24:17;;;;;;;22.27;12.88;;;;;;;25.26;37.60;100886.36;1579593;89;21237;-90
2021/04/19 09:26:51;;;;;;;21.17;12.37;;;;;;;24.17;37.88;100890.95;1579722;89;21138;-90
2021/04/19 09:29:31;;;;;;;19.55;11.90;;;;;;;26.05;35.16;100885.65;1579674;89;21185;-90
2021/04/19 09:32:13;;;;;;;19.15;12.03;;;;;;;25.94;35.22;100878.50;1579602;89;21630;-90
2021/04/19 09:34:45;;;;;;;19.07;12.43;;;;;;;27.28;32.47;100885.78;1531962;93;21950;-89
2021/04/19 09:37:17;;;;;;;25.45;12.60;;;;;;;27.40;32.47;100886.98;1532466;93;21211;-90
2021/04/19 09:39:57;;;;;;;20.15;12.58;;;;;;;27.31;33.58;100890.58;1481092;96;21272;-90
2021/04/19 09:45:48;;;;;;;19.62;11.38;;;;;;;26.25;34.34;100889.28;1479773;96;21663;-92
2021/04/19 09:48:39;;;;;;;21.57;12.18;;;;;;;26.76;32.67;100894.78;1479590;95;21445;-90
2021/04/19 09:51:38;;;;;;;20.15;11.75;;;;;;;22.04;38.54;100901.98;1479121;97;21687;-89
2021/04/19 09:54:16;;;;;;;21.65;12.58;;;;;;;22.61;39.22;100904.27;1479755;97;21688;-90
2021/04/19 09:56:53;;;;;;;20.92;12.65;;;;;;;19.39;44.57;100903.36;1434717;99;21275;-90
2021/04/19 09:59:23;;;;;;;23.47;14.05;;;;;;;20.65;43.35;100901.59;1428312;100;21235;-91
2021/04/19 10:01:54;;;;;;;27.77;13.65;;;;;;;20.20;44.83;100905.30;1428282;100;21282;-92
2021/04/19 10:04:22;;;;;;;25.68;14.13;;;;;;;20.42;45.43;100903.05;1428386;100;21322;-92
2021/04/19 10:06:54;;;;;;;24.67;14.68;;;;;;;21.19;44.00;100908.14;1428181;100;21250;-93
2021/04/19 10:09:25;;;;;;;22.10;12.37;;;;;;;19.31;47.48;100907.64;1424577;100;21686;-91
2021/04/19 10:12:06;;;;;;;22.07;11.05;;;;;;;20.66;44.75;100904.56;1424491;99;21388;-92
2021/04/19 10:14:38;;;;;;;23.07;13.08;;;;;;;20.05;45.79;100901.63;1427018;99;21276;-93
2021/04/19 10:19:48;;;;;;;18.05;10.82;;;;;;;19.91;46.87;100911.86;1403387;100;21728;-91
2021/04/19 10:22:17;;;;;;;21.70;11.30;;;;;;;20.04;46.49;100911.54;1399781;100;21256;-91
2021/04/19 10:24:56;;;;;;;19.52;10.58;;;;;;;19.42;47.54;100911.73;1380930;103;21216;-93
2021/04/19 10:27:31;;;;;;;21.17;11.45;;;;;;;19.58;47.31;100916.81;1403022;100;22118;-88
2021/04/19 10:30:16;;;;;;;21.93;10.98;;;;;;;19.48;46.85;100920.06;1403004;100;21218;-88
2021/04/19 10:32:44;;;;;;;20.82;10.68;;;;;;;19.09;48.42;100928.94;1402988;101;22369;-88
2021/04/19 10:35:35;;;;;;;19.23;10.65;;;;;;;18.47;51.71;100929.45;1402811;101;21321;-89
2021/04/19 10:38:03;;;;;;;22.37;10.60;;;;;;;18.54;52.61;100933.92;1403164;100;21647;-89
2021/04/19 10:40:30;;;;;;;19.02;10.75;;;;;;;18.21;53.65;100937.33;1403061;102;21848;-88
2021/04/19 10:43:14;;;;;;;17.10;10.50;;;;;;;18.54;53.80;100931.20;1419418;99;21753;-88
2021/04/19 10:45:43;;;;;;;18.25;9.80;;;;;;;18.66;53.28;100928.51;1455017;97;21283;-88
2021/04/19 10:48:24;;;;;;;19.30;9.83;;;;;;;19.56;51.03;100926.71;1472732;97;21694;-89
2021/04/19 10:50:55;;;;;;;16.85;9.25;;;;;;;20.00;49.55;100914.64;1471227;97;21139;-90
2021/04/19 10:53:38;;;;;;;17.40;9.75;;;;;;;20.51;47.69;100921.43;1490336;94;21252;-88
2021/04/19 10:56:07;;;;;;;16.90;9.98;;;;;;;19.45;47.35;100923.41;1513186;94;21638;-89
2021/04/19 10:58:37;;;;;;;14.68;8.73;;;;;;;20.09;47.42;100917.69;1492732;95;21302;-89
2021/04/19 11:01:05;;;;;;;16.75;9.48;;;;;;;20.62;47.20;100924.95;1540922;91;37866;-91
2021/04/19 11:03:38;;;;;;;17.75;8.95;;;;;;;21.08;45.08;100918.61;1541168;91;21067;-92
2021/04/19 11:06:08;;;;;;;17.77;9.75;;;;;;;21.06;42.92;100910.72;1541065;91;22140;-92
2021/04/19 11:08:54;;;;;;;17.95;10.45;;;;;;;19.08;47.90;100919.67;1540994;91;21202;-90
2021/04/19 11:11:39;;;;;;;13.93;8.20;;;;;;;19.03;48.08;100920.05;1481648;95;21672;-91
2021/04/19 11:14:25;;;;;;;17.07;9.58;;;;;;;19.78;48.13;100917.69;1508675;93;21477;-90
2021/04/19 11:17:02;;;;;;;16.52;8.83;;;;;;;20.70;45.71;100921.97;1527299;92;21829;-91
2021/04/19 11:19:46;;;;;;;14.60;8.60;;;;;;;21.25;45.40;100918.60;1527378;92;21686;-90
2021/04/19 11:22:34;;;;;;;13.62;7.97;;;;;;;21.51;43.47;100917.80;1530853;91;21226;-91
2021/04/19 11:25:19;;;;;;;12.65;7.55;;;;;;;21.21;42.26;100918.22;1571175;90;21249;-89
2021/04/19 11:27:49;;;;;;;14.45;8.25;;;;;;;20.83;43.78;100914.18;1571458;90;21188;-90
2021/04/19 11:30:26;;;;;;;17.07;8.00;;;;;;;20.87;43.44;100906.12;1547888;92;21163;-89
2021/04/19 11:33:08;;;;;;;11.43;7.00;;;;;;;21.09;43.61;100910.65;1547993;92;21303;-90